Time;durP1;ratioP1;P1;durP2;ratioP2;P2;SDS_P1;SDS_P2;PMS_P1;PMS_P2;Temp;Humidity;BMP_temperature;BMP_pressure;BME280_temperature;BME280_humidity;BME280_pressure;Samples;Min_cycle;Max_cycle;Signal;HPM_P1;HPM_P2
2021/10/08 00:01:02;;;;;;;0.10;0.10;;;;;;;;;;10401959;28;20052;-67
2021/10/08 00:06:04;;;;;;;0.10;0.10;;;;;;;;;;10401277;28;20050;-67
2021/10/08 00:11:09;;;;;;;0.20;0.20;;;;;;;;;;10398635;28;20053;-67
2021/10/08 00:16:12;;;;;;;0.10;0.10;;;;;;;;;;10400622;28;20136;-67
2021/10/08 00:21:15;;;;;;;0.20;0.20;;;;;;;;;;10398880;28;20391;-67
2021/10/08 00:26:19;;;;;;;0.20;0.20;;;;;;;;;;10401367;28;20495;-67
2021/10/08 00:31:22;;;;;;;0.10;0.10;;;;;;;;;;10397251;28;20061;-67
2021/10/08 00:36:25;;;;;;;0.20;0.20;;;;;;;;;;10398376;28;20036;-67
2021/10/08 00:41:29;;;;;;;0.20;0.20;;;;;;;;;;10399074;28;20134;-67
2021/10/08 00:46:32;;;;;;;0.20;0.20;;;;;;;;;;10401361;28;20038;-67
2021/10/08 00:51:35;;;;;;;2.75;0.43;;;;;;;;;;10400056;28;20038;-67
2021/10/08 00:56:40;;;;;;;2.35;0.47;;;;;;;;;;10401138;28;20496;-67
2021/10/08 01:01:43;;;;;;;0.20;0.20;;;;;;;;;;10402173;28;20123;-67
2021/10/08 01:06:46;;;;;;;6.03;1.30;;;;;;;;;;10404631;28;20430;-67
2021/10/08 01:11:51;;;;;;;9.45;1.55;;;;;;;;;;10424231;28;20161;-67
2021/10/08 01:16:56;;;;;;;0.13;0.13;;;;;;;;;;10398897;28;20064;-67
2021/10/08 01:22:02;;;;;;;9.05;1.88;;;;;;;;;;10401729;28;20132;-65
2021/10/08 01:27:07;;;;;;;0.68;0.30;;;;;;;;;;10390794;28;20599;-64
2021/10/08 01:32:10;;;;;;;0.20;0.20;;;;;;;;;;10398476;28;20069;-65
2021/10/08 01:37:15;;;;;;;0.25;0.20;;;;;;;;;;10401445;28;20045;-64
2021/10/08 01:42:18;;;;;;;0.47;0.25;;;;;;;;;;10416499;28;20049;-65
2021/10/08 01:47:21;;;;;;;0.20;0.20;;;;;;;;;;10388887;28;20407;-64
2021/10/08 01:52:26;;;;;;;0.30;0.30;;;;;;;;;;10398049;28;20056;-64
2021/10/08 01:57:29;;;;;;;2.22;0.65;;;;;;;;;;10396489;28;21211;-64
2021/10/08 02:02:33;;;;;;;0.90;0.30;;;;;;;;;;10383360;28;20046;-64
2021/10/08 02:07:38;;;;;;;0.20;0.20;;;;;;;;;;10397953;28;20064;-65
2021/10/08 02:12:45;;;;;;;0.20;0.20;;;;;;;;;;10395555;28;20534;-65
2021/10/08 02:17:48;;;;;;;0.20;0.20;;;;;;;;;;10388627;28;20074;-65
2021/10/08 02:22:53;;;;;;;0.20;0.20;;;;;;;;;;10388037;28;20055;-65
2021/10/08 02:27:56;;;;;;;0.20;0.20;;;;;;;;;;10394299;28;20041;-65
2021/10/08 02:33:00;;;;;;;0.20;0.20;;;;;;;;;;10392963;28;20442;-65
2021/10/08 02:38:05;;;;;;;0.20;0.20;;;;;;;;;;10388472;28;20124;-65
2021/10/08 02:43:08;;;;;;;0.20;0.20;;;;;;;;;;10392643;28;20057;-65
2021/10/08 02:48:12;;;;;;;0.20;0.20;;;;;;;;;;10385965;28;20041;-65
2021/10/08 02:53:16;;;;;;;0.20;0.20;;;;;;;;;;10405219;28;20040;-65
2021/10/08 02:58:20;;;;;;;0.20;0.20;;;;;;;;;;10396987;28;20140;-65
2021/10/08 03:03:23;;;;;;;0.20;0.20;;;;;;;;;;10393381;28;20056;-64
2021/10/08 03:08:27;;;;;;;0.20;0.20;;;;;;;;;;10400759;28;20125;-66
2021/10/08 03:13:31;;;;;;;0.10;0.10;;;;;;;;;;10394435;28;20131;-66
2021/10/08 03:18:34;;;;;;;0.10;0.10;;;;;;;;;;10407593;28;20376;-65
2021/10/08 03:23:42;;;;;;;0.20;0.20;;;;;;;;;;10395759;28;20049;-65
2021/10/08 03:28:45;;;;;;;0.20;0.20;;;;;;;;;;10406162;28;20853;-65
2021/10/08 03:33:49;;;;;;;0.10;0.10;;;;;;;;;;10392617;28;20446;-64
2021/10/08 03:38:54;;;;;;;0.17;0.17;;;;;;;;;;10399452;28;20057;-65
2021/10/08 03:44:27;;;;;;;0.17;0.17;;;;;;;;;;10410913;28;20047;-66
2021/10/08 03:49:30;;;;;;;0.20;0.20;;;;;;;;;;10408074;28;20116;-64
2021/10/08 03:54:34;;;;;;;0.10;0.10;;;;;;;;;;10407830;28;20137;-63
2021/10/08 03:59:37;;;;;;;0.20;0.20;;;;;;;;;;10407244;28;20055;-63
2021/10/08 04:04:40;;;;;;;0.20;0.20;;;;;;;;;;10392314;28;20041;-63
2021/10/08 04:09:45;;;;;;;0.20;0.20;;;;;;;;;;10398911;28;20131;-64
2021/10/08 04:14:49;;;;;;;0.15;0.15;;;;;;;;;;10400753;28;20136;-64
2021/10/08 04:19:51;;;;;;;0.20;0.20;;;;;;;;;;10396779;28;20160;-65
2021/10/08 04:24:56;;;;;;;0.15;0.15;;;;;;;;;;10392659;28;20045;-64
2021/10/08 04:30:00;;;;;;;0.20;0.20;;;;;;;;;;10391493;28;20060;-64
2021/10/08 04:35:05;;;;;;;0.17;0.17;;;;;;;;;;10390066;28;20045;-64
2021/10/08 04:40:12;;;;;;;0.20;0.20;;;;;;;;;;10389160;28;20063;-65
2021/10/08 04:45:16;;;;;;;0.17;0.17;;;;;;;;;;10385631;28;20100;-64
2021/10/08 04:50:20;;;;;;;0.20;0.20;;;;;;;;;;10387316;28;20095;-64
2021/10/08 04:55:24;;;;;;;0.20;0.20;;;;;;;;;;10397983;28;20125;-64
2021/10/08 05:00:27;;;;;;;0.20;0.20;;;;;;;;;;10387333;28;20052;-64
2021/10/08 05:05:30;;;;;;;0.28;0.28;;;;;;;;;;10392021;28;20042;-64
2021/10/08 05:10:35;;;;;;;0.30;0.22;;;;;;;;;;10398614;28;20060;-64
2021/10/08 05:15:39;;;;;;;0.20;0.20;;;;;;;;;;10389055;28;20045;-64
2021/10/08 05:20:41;;;;;;;0.20;0.20;;;;;;;;;;10398049;28;20504;-64
2021/10/08 05:25:46;;;;;;;0.30;0.30;;;;;;;;;;10389979;28;20073;-64
2021/10/08 05:30:49;;;;;;;0.20;0.20;;;;;;;;;;10385084;28;20466;-64
2021/10/08 05:35:53;;;;;;;0.20;0.20;;;;;;;;;;10385069;28;20675;-64
2021/10/08 05:41:00;;;;;;;0.20;0.20;;;;;;;;;;10382044;28;20060;-64
2021/10/08 05:46:04;;;;;;;0.20;0.20;;;;;;;;;;10382449;28;20530;-64
2021/10/08 05:51:08;;;;;;;0.20;0.20;;;;;;;;;;10383061;28;20057;-64
2021/10/08 05:56:12;;;;;;;0.30;0.30;;;;;;;;;;10387822;28;20073;-63
2021/10/08 06:01:15;;;;;;;0.20;0.20;;;;;;;;;;10384757;28;20547;-64
2021/10/08 06:06:19;;;;;;;0.22;0.22;;;;;;;;;;10386050;28;20156;-63
2021/10/08 06:11:23;;;;;;;0.30;0.30;;;;;;;;;;10387854;28;20053;-64
2021/10/08 06:16:26;;;;;;;0.20;0.20;;;;;;;;;;10383074;28;20050;-63
2021/10/08 06:21:29;;;;;;;0.20;0.20;;;;;;;;;;10388481;28;20049;-64
2021/10/08 06:26:33;;;;;;;0.20;0.20;;;;;;;;;;10386562;28;20042;-67
2021/10/08 06:31:36;;;;;;;0.20;0.20;;;;;;;;;;10385496;28;20053;-67
2021/10/08 06:36:39;;;;;;;0.25;0.25;;;;;;;;;;10396801;28;20033;-65
2021/10/08 06:41:43;;;;;;;0.20;0.20;;;;;;;;;;10383785;28;20148;-67
2021/10/08 06:46:53;;;;;;;0.50;0.50;;;;;;;;;;10385290;28;20085;-67
2021/10/08 06:51:57;;;;;;;0.50;0.50;;;;;;;;;;10378058;28;20065;-67
2021/10/08 06:57:02;;;;;;;0.60;0.60;;;;;;;;;;10382607;28;20053;-68
2021/10/08 07:02:08;;;;;;;1.05;0.88;;;;;;;;;;10387442;28;20049;-68
2021/10/08 07:07:11;;;;;;;0.85;0.85;;;;;;;;;;10382303;28;20055;-67
2021/10/08 07:12:38;;;;;;;0.80;0.80;;;;;;;;;;10381091;28;20552;-67
2021/10/08 07:17:43;;;;;;;1.10;1.00;;;;;;;;;;10391049;28;20041;-68
2021/10/08 07:22:46;;;;;;;0.95;0.90;;;;;;;;;;10391899;28;20041;-68
2021/10/08 07:27:50;;;;;;;0.80;0.80;;;;;;;;;;10392966;28;20037;-68
2021/10/08 07:32:56;;;;;;;1.20;0.93;;;;;;;;;;10393377;28;20045;-68
2021/10/08 07:37:59;;;;;;;0.90;0.80;;;;;;;;;;10379544;28;20107;-68
2021/10/08 07:43:04;;;;;;;0.80;0.80;;;;;;;;;;10392447;28;20333;-67
2021/10/08 07:48:06;;;;;;;0.80;0.80;;;;;;;;;;10394014;28;20569;-68
2021/10/08 07:53:13;;;;;;;0.77;0.77;;;;;;;;;;10394057;28;20049;-68
2021/10/08 07:58:17;;;;;;;0.90;0.90;;;;;;;;;;10392089;28;20420;-67
2021/10/08 08:03:20;;;;;;;0.95;0.90;;;;;;;;;;10396645;28;20041;-68
2021/10/08 08:08:24;;;;;;;1.15;1.10;;;;;;;;;;10400334;28;20049;-67
2021/10/08 08:13:28;;;;;;;1.00;1.00;;;;;;;;;;10397025;28;20049;-67
2021/10/08 08:18:30;;;;;;;0.80;0.80;;;;;;;;;;10400572;28;20116;-68
2021/10/08 08:23:33;;;;;;;1.20;1.10;;;;;;;;;;10400518;28;20051;-68
2021/10/08 08:28:37;;;;;;;1.38;1.10;;;;;;;;;;10392884;28;20483;-68
2021/10/08 08:33:40;;;;;;;1.10;1.00;;;;;;;;;;10399293;28;20041;-67
2021/10/08 08:38:43;;;;;;;0.90;0.90;;;;;;;;;;10399103;28;20564;-68
2021/10/08 08:43:47;;;;;;;1.23;1.00;;;;;;;;;;10398233;28;20064;-68
2021/10/08 08:48:50;;;;;;;0.90;0.80;;;;;;;;;;10399822;28;20050;-68
2021/10/08 08:53:53;;;;;;;1.00;1.00;;;;;;;;;;10399429;28;20049;-68
2021/10/08 08:59:01;;;;;;;0.88;0.88;;;;;;;;;;10398537;28;20053;-68
2021/10/08 09:04:04;;;;;;;0.80;0.80;;;;;;;;;;10397758;28;20585;-69
2021/10/08 09:09:16;;;;;;;0.82;0.80;;;;;;;;;;10395544;28;20041;-68
2021/10/08 09:14:21;;;;;;;0.75;0.75;;;;;;;;;;10396409;28;20476;-67
2021/10/08 09:19:24;;;;;;;0.73;0.73;;;;;;;;;;10397072;28;20434;-68
2021/10/08 09:24:27;;;;;;;0.80;0.80;;;;;;;;;;10397086;28;20145;-68
2021/10/08 09:29:32;;;;;;;0.80;0.80;;;;;;;;;;10398060;28;20041;-68
2021/10/08 09:34:34;;;;;;;0.80;0.80;;;;;;;;;;10396378;28;20060;-67
2021/10/08 09:39:38;;;;;;;0.80;0.80;;;;;;;;;;10397443;28;20046;-68
2021/10/08 09:44:46;;;;;;;0.88;0.88;;;;;;;;;;10396009;28;20488;-67
2021/10/08 09:49:50;;;;;;;0.80;0.80;;;;;;;;;;10381523;28;20045;-68
2021/10/08 09:54:53;;;;;;;0.98;0.98;;;;;;;;;;10396755;28;20063;-68
2021/10/08 09:59:57;;;;;;;0.98;0.90;;;;;;;;;;10396749;28;20519;-68
2021/10/08 10:05:01;;;;;;;0.73;0.73;;;;;;;;;;10393269;28;20045;-66
2021/10/08 10:10:04;;;;;;;0.82;0.82;;;;;;;;;;10397531;28;20784;-65
2021/10/08 10:15:12;;;;;;;0.70;0.70;;;;;;;;;;10390531;28;20064;-66
2021/10/08 10:20:15;;;;;;;0.70;0.70;;;;;;;;;;10397198;28;20037;-68
2021/10/08 10:25:18;;;;;;;0.60;0.60;;;;;;;;;;10394439;28;20055;-68
2021/10/08 10:30:22;;;;;;;0.70;0.70;;;;;;;;;;10396776;28;20037;-68
2021/10/08 10:35:37;;;;;;;0.65;0.65;;;;;;;;;;10394585;28;20053;-68
2021/10/08 10:40:40;;;;;;;0.60;0.60;;;;;;;;;;10395625;28;20701;-68
2021/10/08 10:45:46;;;;;;;0.70;0.70;;;;;;;;;;10392741;28;20480;-69
2021/10/08 10:51:09;;;;;;;0.63;0.63;;;;;;;;;;10395478;28;20038;-69
2021/10/08 10:56:39;;;;;;;0.70;0.70;;;;;;;;;;10384130;28;20064;-68
2021/10/08 11:01:57;;;;;;;0.80;0.80;;;;;;;;;;10394567;28;20048;-68
2021/10/08 11:07:05;;;;;;;0.80;0.75;;;;;;;;;;10390578;28;20056;-68
2021/10/08 11:12:27;;;;;;;0.70;0.70;;;;;;;;;;10382852;28;20052;-68
2021/10/08 11:17:29;;;;;;;;;;;;;;;;;;10394084;28;20483;-68
2021/10/08 11:22:46;;;;;;;0.80;0.80;;;;;;;;;;10394143;28;20279;-68
2021/10/08 11:27:49;;;;;;;1.08;0.90;;;;;;;;;;10394342;28;20056;-66
2021/10/08 11:32:53;;;;;;;0.73;0.73;;;;;;;;;;10393479;28;20223;-68
2021/10/08 11:37:57;;;;;;;0.68;0.68;;;;;;;;;;10400105;28;20040;-68
2021/10/08 11:43:02;;;;;;;0.57;0.57;;;;;;;;;;10402104;28;20045;-68
2021/10/08 11:48:11;;;;;;;0.57;0.57;;;;;;;;;;10402780;28;20057;-66
2021/10/08 11:53:15;;;;;;;0.60;0.60;;;;;;;;;;10401857;28;20517;-67
2021/10/08 11:58:36;;;;;;;0.60;0.60;;;;;;;;;;10400906;28;20373;-68
2021/10/08 12:03:40;;;;;;;0.40;0.40;;;;;;;;;;10402949;28;20491;-67
2021/10/08 12:08:44;;;;;;;0.50;0.50;;;;;;;;;;10400135;28;20049;-67
2021/10/08 12:13:47;;;;;;;0.60;0.60;;;;;;;;;;10400905;28;20769;-68
2021/10/08 12:18:52;;;;;;;0.40;0.40;;;;;;;;;;10389299;28;20145;-67
2021/10/08 12:24:05;;;;;;;0.50;0.50;;;;;;;;;;10396992;28;20428;-67
2021/10/08 12:29:08;;;;;;;0.40;0.40;;;;;;;;;;10391034;28;20060;-69
2021/10/08 12:34:11;;;;;;;0.40;0.40;;;;;;;;;;10398246;28;21049;-68
2021/10/08 12:39:18;;;;;;;0.40;0.40;;;;;;;;;;10398886;28;20036;-68
2021/10/08 12:44:23;;;;;;;0.40;0.40;;;;;;;;;;10400025;28;20046;-68
2021/10/08 12:49:27;;;;;;;5.15;1.80;;;;;;;;;;10397857;28;20037;-68
2021/10/08 12:54:31;;;;;;;4.95;1.92;;;;;;;;;;10398491;28;20049;-68
2021/10/08 12:59:49;;;;;;;0.40;0.40;;;;;;;;;;10395356;28;20065;-68
2021/10/08 13:05:04;;;;;;;0.73;0.35;;;;;;;;;;10399190;28;20048;-68
2021/10/08 13:10:15;;;;;;;0.40;0.40;;;;;;;;;;10406613;28;20045;-67
2021/10/08 13:15:20;;;;;;;0.32;0.32;;;;;;;;;;10426309;28;20073;-66
2021/10/08 13:20:22;;;;;;;0.30;0.30;;;;;;;;;;10411819;28;20472;-67
2021/10/08 13:25:28;;;;;;;0.35;0.35;;;;;;;;;;10422984;28;20446;-64
2021/10/08 13:30:30;;;;;;;0.22;0.22;;;;;;;;;;10404820;28;20052;-64
2021/10/08 13:35:33;;;;;;;0.40;0.30;;;;;;;;;;10409255;28;20049;-64
2021/10/08 13:40:38;;;;;;;0.32;0.30;;;;;;;;;;10420917;28;20072;-65
2021/10/08 13:45:41;;;;;;;0.30;0.30;;;;;;;;;;10398445;28;20049;-70
2021/10/08 13:50:45;;;;;;;0.20;0.20;;;;;;;;;;10397984;28;20055;-65
2021/10/08 13:55:49;;;;;;;0.40;0.28;;;;;;;;;;10416370;28;20049;-67
2021/10/08 14:00:53;;;;;;;0.30;0.30;;;;;;;;;;10410284;28;20051;-67
2021/10/08 14:06:32;;;;;;;0.30;0.30;;;;;;;;;;10414247;28;20056;-66
2021/10/08 14:11:37;;;;;;;0.22;0.22;;;;;;;;;;10389879;28;20053;-67
2021/10/08 14:16:40;;;;;;;0.30;0.30;;;;;;;;;;10409557;28;20140;-66
2021/10/08 14:21:43;;;;;;;0.20;0.20;;;;;;;;;;10381093;28;20053;-66
2021/10/08 14:26:47;;;;;;;0.30;0.30;;;;;;;;;;10400684;28;20178;-66
2021/10/08 14:31:50;;;;;;;0.30;0.30;;;;;;;;;;10413619;28;20037;-66
2021/10/08 14:36:53;;;;;;;0.30;0.30;;;;;;;;;;10403326;28;20045;-66
2021/10/08 14:41:58;;;;;;;0.30;0.30;;;;;;;;;;10401130;28;20423;-66
2021/10/08 14:47:01;;;;;;;0.20;0.20;;;;;;;;;;10398906;28;20045;-68
2021/10/08 14:52:06;;;;;;;0.20;0.20;;;;;;;;;;10399849;28;20045;-67
2021/10/08 14:57:28;;;;;;;0.35;0.28;;;;;;;;;;10399655;28;20053;-68
2021/10/08 15:02:32;;;;;;;0.57;0.30;;;;;;;;;;10402935;28;20120;-67
2021/10/08 15:07:35;;;;;;;0.20;0.20;;;;;;;;;;10400957;28;20049;-67
2021/10/08 15:12:40;;;;;;;0.30;0.30;;;;;;;;;;10389588;28;20510;-67
2021/10/08 15:17:42;;;;;;;0.20;0.20;;;;;;;;;;10391186;28;20044;-67
2021/10/08 15:22:47;;;;;;;0.20;0.20;;;;;;;;;;10390766;28;20068;-67
2021/10/08 15:27:53;;;;;;;0.40;0.30;;;;;;;;;;10390517;28;20431;-67
2021/10/08 15:32:56;;;;;;;0.30;0.30;;;;;;;;;;10391540;28;20041;-68
2021/10/08 15:37:59;;;;;;;0.47;0.47;;;;;;;;;;10389706;28;20054;-67
2021/10/08 15:43:05;;;;;;;0.40;0.40;;;;;;;;;;10390626;28;20045;-67
2021/10/08 15:48:08;;;;;;;0.40;0.40;;;;;;;;;;10372980;28;20053;-67
2021/10/08 15:53:11;;;;;;;0.35;0.35;;;;;;;;;;10389407;28;20091;-69
2021/10/08 15:58:15;;;;;;;0.30;0.30;;;;;;;;;;10379584;28;20117;-67
2021/10/08 16:03:18;;;;;;;0.30;0.30;;;;;;;;;;10391596;28;20034;-67
2021/10/08 16:08:21;;;;;;;0.40;0.40;;;;;;;;;;10391780;28;20507;-67
2021/10/08 16:13:26;;;;;;;0.40;0.40;;;;;;;;;;10374032;28;20136;-66
2021/10/08 16:18:34;;;;;;;0.40;0.40;;;;;;;;;;10390783;28;20364;-66
2021/10/08 16:23:38;;;;;;;0.30;0.30;;;;;;;;;;10388767;28;20041;-66
2021/10/08 16:28:43;;;;;;;0.55;0.40;;;;;;;;;;10399100;28;20061;-66
2021/10/08 16:33:46;;;;;;;0.40;0.40;;;;;;;;;;10398165;28;20056;-63
2021/10/08 16:38:49;;;;;;;0.20;0.20;;;;;;;;;;10397613;28;20815;-67
2021/10/08 16:43:53;;;;;;;0.43;0.40;;;;;;;;;;10383268;28;20050;-65
2021/10/08 16:48:56;;;;;;;0.30;0.30;;;;;;;;;;10397699;28;20057;-65
2021/10/08 16:54:03;;;;;;;0.32;0.32;;;;;;;;;;10396120;28;20057;-66
2021/10/08 16:59:07;;;;;;;0.40;0.40;;;;;;;;;;10396689;28;20037;-66
2021/10/08 17:04:10;;;;;;;0.30;0.30;;;;;;;;;;10395885;28;20403;-66
2021/10/08 17:09:12;;;;;;;0.30;0.30;;;;;;;;;;10409239;28;20068;-69
2021/10/08 17:14:17;;;;;;;0.30;0.30;;;;;;;;;;10417788;28;20059;-66
2021/10/08 17:19:24;;;;;;;0.30;0.30;;;;;;;;;;10413861;28;20038;-65
2021/10/08 17:24:28;;;;;;;0.30;0.30;;;;;;;;;;10416444;28;20056;-66
2021/10/08 17:29:46;;;;;;;0.30;0.30;;;;;;;;;;10415229;28;20037;-68
2021/10/08 17:34:49;;;;;;;0.45;0.40;;;;;;;;;;10392417;28;20060;-66
2021/10/08 17:39:53;;;;;;;0.52;0.45;;;;;;;;;;10396672;28;20041;-67
2021/10/08 17:44:57;;;;;;;0.30;0.30;;;;;;;;;;10412764;28;20153;-66
2021/10/08 17:50:00;;;;;;;0.45;0.45;;;;;;;;;;10407527;28;20041;-64
2021/10/08 17:55:05;;;;;;;0.40;0.40;;;;;;;;;;10412052;28;20877;-67
2021/10/08 18:00:09;;;;;;;0.38;0.30;;;;;;;;;;10402371;28;20045;-69
2021/10/08 18:05:15;;;;;;;0.40;0.40;;;;;;;;;;10415969;28;20068;-68
2021/10/08 18:10:20;;;;;;;0.30;0.30;;;;;;;;;;10404218;28;20058;-67
2021/10/08 18:15:26;;;;;;;0.52;0.32;;;;;;;;;;10417268;28;20123;-67
2021/10/08 18:20:29;;;;;;;0.45;0.30;;;;;;;;;;10411052;28;20061;-68
2021/10/08 18:25:32;;;;;;;0.30;0.30;;;;;;;;;;10403079;28;20037;-69
2021/10/08 18:30:39;;;;;;;0.30;0.30;;;;;;;;;;10394058;28;20878;-67
2021/10/08 18:36:07;;;;;;;0.25;0.25;;;;;;;;;;10409871;28;20386;-69
2021/10/08 18:41:10;;;;;;;0.30;0.30;;;;;;;;;;10411754;28;20848;-66
2021/10/08 18:46:15;;;;;;;0.47;0.30;;;;;;;;;;10408042;28;20049;-69
2021/10/08 18:51:18;;;;;;;0.30;0.30;;;;;;;;;;10410618;28;20045;-69
2021/10/08 18:56:20;;;;;;;0.30;0.30;;;;;;;;;;10410653;28;20057;-70
2021/10/08 19:01:25;;;;;;;0.38;0.20;;;;;;;;;;10401114;28;20041;-69
2021/10/08 19:06:28;;;;;;;0.35;0.32;;;;;;;;;;10408752;28;20120;-70
2021/10/08 19:11:33;;;;;;;0.20;0.20;;;;;;;;;;10390675;28;20130;-70
2021/10/08 19:22:03;;;;;;;0.52;0.20;;;;;;;;;;10399788;28;20056;-71
2021/10/08 19:27:06;;;;;;;0.63;0.30;;;;;;;;;;10391958;28;20057;-72
2021/10/08 19:32:12;;;;;;;0.40;0.40;;;;;;;;;;10413145;28;20044;-65
2021/10/08 19:37:15;;;;;;;0.45;0.40;;;;;;;;;;10406403;28;20049;-67
2021/10/08 19:42:19;;;;;;;0.15;0.15;;;;;;;;;;10408784;28;20045;-66
2021/10/08 19:47:29;;;;;;;0.22;0.20;;;;;;;;;;10407746;28;20870;-66
2021/10/08 19:52:45;;;;;;;0.30;0.30;;;;;;;;;;10411841;28;20043;-66
2021/10/08 19:57:47;;;;;;;0.30;0.30;;;;;;;;;;10406147;28;20986;-65
2021/10/08 20:02:54;;;;;;;0.20;0.20;;;;;;;;;;10398953;28;20038;-68
2021/10/08 20:18:42;;;;;;;0.50;0.30;;;;;;;;;;10395270;28;20410;-66
2021/10/08 20:23:46;;;;;;;0.45;0.40;;;;;;;;;;10385829;28;20038;-68
2021/10/08 20:28:49;;;;;;;0.73;0.30;;;;;;;;;;10401183;28;20472;-68
2021/10/08 20:33:53;;;;;;;0.50;0.30;;;;;;;;;;10395839;28;20047;-68
2021/10/08 20:38:56;;;;;;;0.20;0.20;;;;;;;;;;10392789;28;20503;-69
2021/10/08 20:43:59;;;;;;;0.38;0.32;;;;;;;;;;10392954;28;20042;-69
2021/10/08 20:49:03;;;;;;;0.30;0.30;;;;;;;;;;10395627;28;20045;-68
2021/10/08 20:54:06;;;;;;;0.25;0.25;;;;;;;;;;10382112;28;20056;-68
2021/10/08 20:59:09;;;;;;;0.43;0.30;;;;;;;;;;10394856;28;20411;-67
2021/10/08 21:04:13;;;;;;;0.30;0.30;;;;;;;;;;10395385;28;20727;-67
2021/10/08 21:09:16;;;;;;;0.45;0.30;;;;;;;;;;10406926;28;20863;-68
2021/10/08 21:14:19;;;;;;;0.20;0.20;;;;;;;;;;10414155;28;20049;-67
2021/10/08 21:19:24;;;;;;;0.20;0.20;;;;;;;;;;10393006;28;20068;-71
2021/10/08 21:24:27;;;;;;;0.30;0.30;;;;;;;;;;10415752;28;20135;-69
2021/10/08 21:29:30;;;;;;;0.30;0.30;;;;;;;;;;10411297;28;20740;-70
2021/10/08 21:34:39;;;;;;;0.40;0.22;;;;;;;;;;10411471;28;20049;-68
2021/10/08 21:39:55;;;;;;;0.22;0.20;;;;;;;;;;10412693;28;20053;-69
2021/10/08 21:45:05;;;;;;;0.20;0.20;;;;;;;;;;10413582;28;20192;-72
2021/10/08 21:50:10;;;;;;;0.20;0.20;;;;;;;;;;10412747;28;20166;-72
2021/10/08 21:55:13;;;;;;;0.63;0.30;;;;;;;;;;10412653;28;20049;-71
2021/10/08 22:00:34;;;;;;;0.30;0.20;;;;;;;;;;10416475;28;20128;-71
2021/10/08 22:05:39;;;;;;;0.20;0.20;;;;;;;;;;10408888;28;20115;-71
2021/10/08 22:10:41;;;;;;;0.35;0.30;;;;;;;;;;10396314;28;20050;-73
2021/10/08 22:15:45;;;;;;;0.30;0.30;;;;;;;;;;10394144;28;20053;-71
2021/10/08 22:21:05;;;;;;;0.30;0.30;;;;;;;;;;10381902;28;20161;-74
2021/10/08 22:26:28;;;;;;;0.90;0.30;;;;;;;;;;10393473;28;20049;-73
2021/10/08 22:37:04;;;;;;;0.25;0.25;;;;;;;;;;10321258;28;19925;-71
2021/10/08 22:42:08;;;;;;;0.30;0.30;;;;;;;;;;10393710;28;20037;-71
2021/10/08 22:47:11;;;;;;;0.30;0.30;;;;;;;;;;10391093;28;20128;-72
2021/10/08 22:52:16;;;;;;;0.30;0.30;;;;;;;;;;10378180;28;20525;-73
2021/10/08 22:57:18;;;;;;;0.30;0.30;;;;;;;;;;10392041;28;20431;-73
2021/10/08 23:02:21;;;;;;;0.25;0.25;;;;;;;;;;10392669;28;20058;-73
2021/10/08 23:07:30;;;;;;;0.20;0.20;;;;;;;;;;10391407;28;20073;-73
2021/10/08 23:12:45;;;;;;;0.32;0.32;;;;;;;;;;10394482;28;20046;-72
2021/10/08 23:17:49;;;;;;;0.28;0.28;;;;;;;;;;10378952;28;20055;-71
2021/10/08 23:22:54;;;;;;;0.30;0.30;;;;;;;;;;10391275;28;20045;-71
2021/10/08 23:27:57;;;;;;;0.20;0.20;;;;;;;;;;10391776;28;20072;-69
2021/10/08 23:33:00;;;;;;;0.50;0.32;;;;;;;;;;10394963;28;20458;-71
2021/10/08 23:38:04;;;;;;;0.30;0.30;;;;;;;;;;10398772;28;20531;-70
2021/10/08 23:43:08;;;;;;;0.20;0.20;;;;;;;;;;10399761;28;20121;-69
2021/10/08 23:48:11;;;;;;;0.30;0.30;;;;;;;;;;10399525;28;20054;-69
2021/10/08 23:53:15;;;;;;;1.00;0.30;;;;;;;;;;10402610;28;20052;-71
2021/10/08 23:58:18;;;;;;;0.20;0.20;;;;;;;;;;10401943;28;20037;-69
